createdAt,value
2018-09-29T00:01:33.302Z,3.91
2018-09-29T00:03:34.730Z,2.26
2018-09-29T00:07:35.558Z,3.24
2018-09-29T00:13:36.564Z,4.02
2018-09-29T00:17:37.335Z,3.66
2018-09-29T00:23:38.183Z,3.92
2018-09-29T00:27:39.057Z,3.53
2018-09-29T00:29:39.739Z,3.83
2018-09-29T00:33:40.462Z,3.81
2018-09-29T00:39:41.449Z,3.71
2018-09-29T00:43:42.165Z,3.4
2018-09-29T00:49:42.922Z,3.56
2018-09-29T00:53:43.723Z,3.17
2018-09-29T00:55:44.494Z,3.73
2018-09-29T00:59:45.240Z,3.9
2018-09-29T01:05:45.894Z,3.9
2018-09-29T01:09:46.766Z,4.02
2018-09-29T01:15:47.484Z,3.53
2018-09-29T01:19:52.870Z,3.7
2018-09-29T01:21:53.946Z,3.32
2018-09-29T01:25:54.677Z,3.17
2018-09-29T01:31:55.643Z,3.56
2018-09-29T01:35:56.471Z,3.34
2018-09-29T01:41:57.331Z,3.29
2018-09-29T01:45:58.256Z,3.11
2018-09-29T01:47:58.967Z,2.88
2018-09-29T01:51:59.837Z,2.94
2018-09-29T01:58:00.625Z,3.98
2018-09-29T02:02:01.402Z,3.06
2018-09-29T02:08:02.124Z,3.33
2018-09-29T02:12:03.053Z,3.02
2018-09-29T02:14:03.928Z,3.31
2018-09-29T02:18:04.761Z,2.83
2018-09-29T02:24:05.594Z,3.32
2018-09-29T02:28:06.254Z,3.12
2018-09-29T02:34:07.051Z,3.32
2018-09-29T02:38:07.849Z,3.14
2018-09-29T02:40:08.702Z,3.6
2018-09-29T02:44:09.477Z,3.12
2018-09-29T02:50:10.229Z,3.41
2018-09-29T02:54:11.669Z,3.5
2018-09-29T03:00:13.541Z,3.56
2018-09-29T03:04:14.241Z,2.95
2018-09-29T03:06:15.107Z,3.42
2018-09-29T03:10:15.877Z,3.42
2018-09-29T03:16:16.709Z,3.07
2018-09-29T03:20:17.406Z,3.21
2018-09-29T03:26:18.191Z,3.15
2018-09-29T03:30:19.646Z,2.67
2018-09-29T03:32:20.428Z,3.06
2018-09-29T03:36:21.199Z,2.85
2018-09-29T03:42:22.035Z,3.16
2018-09-29T03:46:22.830Z,3.38
2018-09-29T03:52:23.565Z,3.26
2018-09-29T03:56:24.345Z,3.23
2018-09-29T03:58:25.229Z,2.85
2018-09-29T04:02:25.934Z,2.65
2018-09-29T04:08:26.790Z,3.12
2018-09-29T04:12:27.614Z,2.81
2018-09-29T04:18:28.375Z,2.99
2018-09-29T04:22:29.246Z,3.12
2018-09-29T04:24:29.897Z,3.14
2018-09-29T04:28:30.663Z,2.97
2018-09-29T04:34:31.401Z,3.33
2018-09-29T04:38:32.218Z,3.77
2018-09-29T04:44:32.993Z,3.42
2018-09-29T04:48:33.739Z,3.48
2018-09-29T04:50:34.422Z,3.63
2018-09-29T04:54:35.259Z,3.35
2018-09-29T05:00:35.948Z,4.31
2018-09-29T05:04:36.774Z,3.2
2018-09-29T05:10:37.548Z,3.48
2018-09-29T05:14:38.519Z,3.81
2018-09-29T05:16:39.233Z,3.99
2018-09-29T05:20:40.037Z,3.86
2018-09-29T05:26:40.816Z,4.12
2018-09-29T05:30:41.669Z,3.59
2018-09-29T05:36:42.486Z,7.1
2018-09-29T05:40:43.172Z,7.2
2018-09-29T05:42:43.942Z,9.21
2018-09-29T05:46:44.682Z,9.29
2018-09-29T05:52:45.447Z,11.99
2018-09-29T05:56:46.284Z,11.49
2018-09-29T06:02:47.200Z,8.76
2018-09-29T06:06:48.059Z,9.57
2018-09-29T06:08:48.892Z,8.73
2018-09-29T06:12:49.728Z,9.3
2018-09-29T06:18:50.451Z,7.67
2018-09-29T06:22:51.176Z,9.96
2018-09-29T06:32:57.420Z,10.42
2018-09-29T06:32:57.525Z,11.62
2018-09-29T06:34:58.391Z,11
2018-09-29T06:38:59.107Z,10.94
2018-09-29T06:44:59.861Z,10.36
2018-09-29T06:49:00.644Z,10.14
2018-09-29T06:55:01.457Z,15.31
2018-09-29T06:59:02.201Z,15.82
2018-09-29T07:01:02.996Z,14.6
2018-09-29T07:05:03.739Z,14.37
2018-09-29T07:11:04.572Z,14.02
2018-09-29T07:15:05.267Z,12.83
2018-09-29T07:21:06.066Z,12.94
2018-09-29T07:25:06.800Z,12.56
2018-09-29T07:27:07.476Z,15.36
2018-09-29T07:31:08.357Z,16.7
2018-09-29T07:37:08.902Z,17.78
2018-09-29T07:41:09.702Z,16.99
2018-09-29T07:47:10.451Z,15.59
2018-09-29T07:51:11.320Z,14.61
2018-09-29T07:53:12.046Z,13.22
2018-09-29T07:57:12.934Z,12.22
2018-09-29T08:03:13.742Z,10.05
2018-09-29T08:07:14.786Z,10.1
2018-09-29T08:13:15.824Z,5.71
2018-09-29T08:17:16.592Z,5.86
2018-09-29T08:19:17.356Z,5.69
2018-09-29T08:23:18.151Z,5.53
2018-09-29T08:29:18.898Z,4.83
2018-09-29T08:33:19.774Z,4.85
2018-09-29T08:39:21.190Z,4.65
2018-09-29T08:43:21.981Z,4.65
2018-09-29T08:45:23.043Z,4.72
2018-09-29T08:49:23.947Z,4.52
2018-09-29T08:55:24.949Z,4.08
2018-09-29T08:59:25.803Z,4.08
2018-09-29T09:05:26.737Z,3.94
2018-09-29T09:09:27.572Z,3.92
2018-09-29T09:11:28.529Z,4.09
2018-09-29T09:15:29.916Z,4.23
2018-09-29T09:21:30.964Z,4.16
2018-09-29T09:25:31.684Z,3.57
2018-09-29T09:31:32.561Z,4.42
2018-09-29T09:37:34.813Z,3.53
2018-09-29T09:37:34.990Z,3.7
2018-09-29T09:41:35.746Z,3.39
2018-09-29T09:47:36.629Z,4.48
2018-09-29T09:51:37.338Z,3.76
2018-09-29T09:57:38.160Z,4.61
2018-09-29T10:01:38.883Z,3.8
2018-09-29T10:03:39.598Z,4.15
2018-09-29T10:07:40.377Z,3.38
2018-09-29T10:13:41.240Z,3.65
2018-09-29T10:17:42.024Z,3.31
2018-09-29T10:23:42.697Z,4.2
2018-09-29T10:27:43.503Z,4.17
2018-09-29T10:29:44.123Z,3.98
2018-09-29T10:33:44.817Z,3.69
2018-09-29T10:39:45.555Z,4.42
2018-09-29T10:43:46.243Z,4.24
2018-09-29T10:49:46.950Z,3.61
2018-09-29T10:55:47.800Z,3.89
2018-09-29T10:59:48.586Z,4.09
2018-09-29T11:05:49.834Z,4.09
2018-09-29T11:09:50.633Z,3.57
2018-09-29T11:15:51.369Z,3.26
2018-09-29T11:21:52.141Z,3.18
2018-09-29T11:25:52.960Z,2.9
2018-09-29T11:31:53.715Z,2.99
2018-09-29T11:35:54.432Z,3.44
2018-09-29T11:41:55.310Z,3.27
2018-09-29T11:47:56.080Z,3.65
2018-09-29T11:51:57.011Z,3.57
2018-09-29T11:57:57.734Z,3.37
2018-09-29T12:01:58.536Z,3.09
2018-09-29T12:07:59.249Z,2.92
2018-09-29T12:07:59.249Z,2.92
2018-09-29T12:14:00.000Z,2.99
2018-09-29T12:18:00.688Z,3.14
2018-09-29T12:24:01.412Z,2.86
2018-09-29T12:28:02.193Z,2.98
2018-09-29T12:34:02.893Z,3.1
2018-09-29T12:40:03.635Z,3.55
2018-09-29T12:44:04.500Z,3.18
2018-09-29T12:50:05.146Z,3.76
2018-09-29T12:54:05.829Z,3.14
2018-09-29T12:56:06.541Z,3.43
2018-09-29T13:00:07.320Z,3.11
2018-09-29T13:06:08.149Z,3.43
2018-09-29T13:10:08.963Z,3.23
2018-09-29T13:16:09.747Z,3.79
2018-09-29T13:20:10.502Z,3.81
2018-09-29T13:22:11.216Z,4.29
2018-09-29T13:26:12.478Z,4.13
2018-09-29T13:32:13.241Z,4.15
2018-09-29T13:36:13.928Z,4.12
2018-09-29T13:42:14.724Z,4.98
2018-09-29T13:46:15.773Z,4.73
2018-09-29T13:48:16.479Z,4.81
2018-09-29T13:52:17.374Z,4.6
2018-09-29T13:58:18.138Z,5.18
2018-09-29T14:02:18.853Z,4.89
2018-09-29T14:08:19.627Z,4.49
2018-09-29T14:12:20.497Z,4.66
2018-09-29T14:14:22.103Z,5.32
2018-09-29T14:18:22.084Z,4.81
2018-09-29T14:24:22.871Z,5.02
2018-09-29T14:28:23.580Z,4.51
2018-09-29T14:34:24.363Z,5.71
2018-09-29T14:38:25.121Z,5.48
2018-09-29T14:40:25.872Z,5.65
2018-09-29T14:44:26.715Z,5.76
2018-09-29T14:50:27.829Z,6.1
2018-09-29T14:54:28.486Z,5.34
2018-09-29T15:00:29.797Z,5.98
2018-09-29T15:04:30.767Z,6.02
2018-09-29T15:06:31.397Z,6.09
2018-09-29T15:10:32.248Z,5.45
2018-09-29T15:16:33.004Z,6.17
2018-09-29T15:20:33.915Z,5.78
2018-09-29T15:26:34.745Z,6.05
2018-09-29T15:32:35.419Z,5.95
2018-09-29T15:36:36.160Z,5.59
2018-09-29T15:42:36.975Z,5.48
2018-09-29T15:46:38.231Z,5.13
2018-09-29T15:52:52.830Z,6.34
2018-09-29T15:57:03.972Z,6.05
2018-09-29T16:03:04.971Z,6.31
2018-09-29T16:09:10.141Z,6.12
2018-09-29T16:13:11.071Z,5.96
2018-09-29T16:19:12.559Z,6.02
2018-09-29T16:29:26.141Z,5.81
2018-09-29T16:29:27.214Z,6.38
2018-09-29T16:33:32.257Z,6.07
2018-09-29T16:39:37.265Z,5.48
2018-09-29T16:45:39.668Z,6.3
2018-09-29T16:49:41.564Z,5.93
2018-09-29T16:55:42.417Z,6.66
2018-09-29T16:59:43.169Z,5.95
2018-09-29T17:05:43.794Z,7.04
2018-09-29T17:11:44.635Z,6.4
2018-09-29T17:15:45.535Z,5.94
2018-09-29T17:21:47.469Z,6.42
2018-09-29T17:25:48.102Z,6.27
2018-09-29T17:31:48.893Z,5.97
2018-09-29T17:37:49.508Z,6.29
2018-09-29T17:41:50.262Z,5.99
2018-09-29T17:47:51.004Z,5.48
2018-09-29T17:51:51.824Z,4.96
2018-09-29T17:57:52.569Z,5.25
2018-09-29T18:03:53.390Z,4.98
2018-09-29T18:07:54.123Z,4.74
2018-09-29T18:13:54.821Z,5.35
2018-09-29T18:17:55.489Z,4.46
2018-09-29T18:23:56.309Z,4.92
2018-09-29T18:29:57.016Z,4.66
2018-09-29T18:33:58.165Z,4.37
2018-09-29T18:39:58.947Z,5.06
2018-09-29T18:43:59.934Z,4.57
2018-09-29T18:50:00.841Z,4.19
2018-09-29T18:56:01.791Z,5.3
2018-09-29T19:00:02.684Z,4.57
2018-09-29T19:06:03.330Z,4.89
2018-09-29T19:10:04.073Z,5.01
2018-09-29T19:12:04.833Z,5.37
2018-09-29T19:16:06.341Z,5.03
2018-09-29T19:22:07.222Z,5.3
2018-09-29T19:26:08.260Z,5.27
2018-09-29T19:32:09.100Z,5.08
2018-09-29T19:36:09.980Z,5.06
2018-09-29T19:38:10.855Z,5.43
2018-09-29T19:48:19.327Z,5.19
2018-09-29T19:48:20.025Z,5.48
2018-09-29T19:52:20.855Z,5.15
2018-09-29T19:58:24.978Z,5.78
2018-09-29T20:02:27.170Z,4.87
2018-09-29T20:08:29.421Z,6.29
2018-09-29T20:14:30.366Z,6.01
2018-09-29T20:18:31.147Z,5.56
2018-09-29T20:24:32.993Z,5.56
2018-09-29T20:28:33.916Z,5.16
2018-09-29T20:34:41.787Z,6.81
2018-09-29T20:40:55.361Z,6.76
2018-09-29T20:41:00.449Z,5.49
2018-09-29T20:45:07.689Z,6.27
2018-09-29T20:49:10.305Z,6.08
2018-09-29T20:51:11.200Z,6.86
2018-09-29T20:55:16.407Z,6.8
2018-09-29T21:01:17.424Z,6.07
2018-09-29T21:05:18.329Z,5.86
2018-09-29T21:11:19.273Z,6.82
2018-09-29T21:15:26.253Z,6.83
2018-09-29T21:21:30.662Z,5.08
2018-09-29T21:27:31.556Z,5.46
2018-09-29T21:31:32.380Z,5.64
2018-09-29T21:37:33.126Z,6.11
2018-09-29T21:47:41.628Z,5.65
2018-09-29T21:47:41.715Z,5.88
2018-09-29T21:51:42.568Z,5.77
2018-09-29T21:53:43.404Z,5.57
2018-09-29T21:57:44.248Z,5.37
2018-09-29T22:03:45.015Z,5.49
2018-09-29T22:07:45.796Z,5.37
2018-09-29T22:13:46.623Z,5.23
2018-09-29T22:19:47.495Z,5.66
2018-09-29T22:23:48.158Z,5.25
2018-09-29T22:29:49.027Z,4.81
2018-09-29T22:33:50.002Z,5.06
2018-09-29T22:39:50.663Z,5.46
2018-09-29T22:45:51.439Z,5.16
2018-09-29T22:49:52.289Z,4.73
2018-09-29T22:55:53.018Z,4.79
2018-09-29T22:59:53.738Z,4.57
2018-09-29T23:05:54.500Z,4.91
2018-09-29T23:11:55.182Z,5.43
2018-09-29T23:15:55.962Z,5.18
2018-09-29T23:21:56.680Z,8.18
2018-09-29T23:25:57.465Z,6.6
2018-09-29T23:31:58.105Z,6.21
2018-09-29T23:37:58.910Z,6.41
2018-09-29T23:41:59.629Z,5.96
2018-09-29T23:48:00.479Z,6.12
2018-09-29T23:52:01.134Z,5.52
2018-09-29T23:58:01.912Z,4.81
